Terminal Aerodrome Forecast
Issued by NWS

Home | Current Version | Previous Version | Text Only | Print | Product List | Glossary On
Versions: 1 2 3 4 5 6 7 8 9 10 11 12 13 14 15 16 17 18 19 20 21 22 23 24 25 26 27 28 29 30
000
FTUS43 KDLH 201400 AAA
TAFHIB
TAF AMD
KHIB 201410Z 2014/2112 18010KT P6SM FEW040
     FM201800 19015KT P6SM SCT050
     FM210000 20012KT P6SM VCTS BKN050CB
      TEMPO 2102/2106 4SM -TSRA BKN025CB
     FM210600 20006KT 2SM BR VCSH SCT005 BKN150
      TEMPO 2108/2112 1/2SM FG BKN004=

USA.gov is the U.S. government's official web portal to all federal, state and local government web resources and services.